LiveATC.Net - Listen to live air traffic control over the Internet!


ICAO: SBSR  IATA: SJP   Airport: Sao Jose do Rio Preto Airport
City: Sao Jose do Rio Preto
Country: Brazil   Continent: South America
SBSR METAR Weather: SBSR 241500Z 16005KT 9999 BKN015 26/20 Q1008
SBSR Flight Activity (FlightAware)

SBSR AFIS/App/Center
Feed Status: UP   Listeners: 4
Listen in your browser - HTML5 player (in browser, HTML5)
Click here to listen with your own player (launches your MP3 player)
Archive Access: SBSR AFIS/App/Center
FacilityFrequency
Academia Approach (North Sector)119.750
Academia Approach (North Sector)120.400
Brasilia Center135.150
Rio Preto Radio AFIS130.850

NOTICE

Unauthorized use prohibited. See LiveATC.net Terms of Service


Airport/ARTCC Code
Frequency Search
(e.g., 124.400, 128.75)
Site-wide search
 


Browse Feeds
Top 50 Feeds
Coverage Map
Bad Weather Areas

LiveATC FAQ
Offer LiveATC feed
Contact LiveATC.net
Press Inquiries

LiveATC on iPhone
LiveATC on Android

Windows Phone
Windows 8/10

LiveATC Mobile
(Mobile browser)

ATC Audio Archives
Interesting Recordings

LiveATC Forums


Home Page
About LiveATC.net
Make a Donation
Terms of Use
Privacy Policy

Canadian Air Freqs

AIRMETs/SIGMETs

FAA Airport Status
Nat'l Airspace Status
Arrival Demand Charts


Server Software By:
Icecast.org
Liquidsoap